Time,TemperatureF,DewpointF,PressureIn,WindDirection,WindDirectionDegrees,WindSpeedMPH,WindSpeedGustMPH,Humidity,HourlyPrecipIn,Conditions,Clouds,dailyrainin,SolarRadiationWatts/m^2,SoftwareType,DateUTC
2013-04-27 00:05:00,33.1,24.0,29.50,SSW,198,5.0,8.0,68,0.00,,,0.00,0,weatherlink.com 1.10,2013-04-27 08:05:00,
2013-04-27 00:20:00,33.2,22.0,29.51,WSW,249,6.0,8.0,64,0.00,,,0.00,0,weatherlink.com 1.10,2013-04-27 08:20:00,
2013-04-27 00:35:00,33.6,21.0,29.51,SW,236,6.0,8.0,61,0.00,,,0.00,0,weatherlink.com 1.10,2013-04-27 08:35:00,
2013-04-27 00:50:00,33.3,19.0,29.51,WSW,246,7.0,8.0,57,0.00,,,0.00,0,weatherlink.com 1.10,2013-04-27 08:50:00,
2013-04-27 01:05:00,32.6,19.0,29.51,West,268,4.0,10.0,58,0.00,,,0.00,0,weatherlink.com 1.10,2013-04-27 09:05:00,
2013-04-27 01:20:00,32.3,19.0,29.51,West,275,1.0,8.0,58,0.00,,,0.00,0,weatherlink.com 1.10,2013-04-27 09:20:00,
2013-04-27 01:35:00,32.1,19.0,29.52,WSW,258,6.0,12.0,58,0.00,,,0.00,0,weatherlink.com 1.10,2013-04-27 09:35:00,
2013-04-27 01:50:00,31.8,19.0,29.52,West,264,7.0,11.0,59,0.00,,,0.00,0,weatherlink.com 1.10,2013-04-27 09:50:00,
2013-04-27 02:05:00,31.8,18.0,29.52,WSW,242,10.0,12.0,58,0.00,,,0.00,0,weatherlink.com 1.10,2013-04-27 10:05:00,
2013-04-27 02:20:00,31.6,19.0,29.52,SW,232,8.0,12.0,60,0.00,,,0.00,0,weatherlink.com 1.10,2013-04-27 10:20:00,
2013-04-27 02:36:00,31.1,19.0,29.53,SW,233,8.0,11.0,62,0.00,,,0.00,0,weatherlink.com 1.10,2013-04-27 10:36:00,
2013-04-27 02:51:00,30.8,19.0,29.53,WSW,249,8.0,10.0,63,0.00,,,0.00,0,weatherlink.com 1.10,2013-04-27 10:51:00,
2013-04-27 03:06:00,30.7,19.0,29.54,West,265,7.0,12.0,63,0.00,,,0.00,0,weatherlink.com 1.10,2013-04-27 11:06:00,
2013-04-27 03:21:00,30.7,19.0,29.54,WNW,288,9.0,12.0,63,0.00,,,0.00,0,weatherlink.com 1.10,2013-04-27 11:21:00,
2013-04-27 03:36:00,32.1,19.0,29.55,NW,323,5.0,11.0,59,0.00,,,0.00,0,weatherlink.com 1.10,2013-04-27 11:36:00,
2013-04-27 03:51:00,32.0,21.0,29.55,NNW,329,6.0,8.0,65,0.00,,,0.00,0,weatherlink.com 1.10,2013-04-27 11:51:00,
2013-04-27 04:06:00,31.4,22.0,29.55,NNW,329,1.0,5.0,68,0.00,,,0.00,0,weatherlink.com 1.10,2013-04-27 12:06:00,
2013-04-27 04:21:00,31.9,22.0,29.56,NNW,329,1.0,4.0,68,0.00,,,0.00,0,weatherlink.com 1.10,2013-04-27 12:21:00,
2013-04-27 04:36:00,31.7,22.0,29.56,NNW,329,1.0,3.0,67,0.00,,,0.00,0,weatherlink.com 1.10,2013-04-27 12:36:00,
2013-04-27 04:51:00,31.7,22.0,29.57,NNW,329,2.0,5.0,67,0.00,,,0.00,0,weatherlink.com 1.10,2013-04-27 12:51:00,
2013-04-27 05:06:00,30.9,20.0,29.57,NNW,331,2.0,6.0,64,0.00,,,0.00,0,weatherlink.com 1.10,2013-04-27 13:06:00,
2013-04-27 05:21:00,30.1,19.0,29.58,WSW,254,8.0,8.0,64,0.00,,,0.00,0,weatherlink.com 1.10,2013-04-27 13:21:00,
2013-04-27 05:36:00,29.9,18.0,29.58,West,274,7.0,13.0,62,0.00,,,0.00,0,weatherlink.com 1.10,2013-04-27 13:36:00,
2013-04-27 05:51:00,29.8,18.0,29.59,West,267,7.0,10.0,61,0.00,,,0.00,0,weatherlink.com 1.10,2013-04-27 13:51:00,
2013-04-27 06:06:00,29.7,18.0,29.59,West,266,12.0,13.0,61,0.00,,,0.00,5,weatherlink.com 1.10,2013-04-27 14:06:00,
2013-04-27 06:21:00,29.9,18.0,29.59,WNW,294,2.0,10.0,61,0.00,,,0.00,9,weatherlink.com 1.10,2013-04-27 14:21:00,
2013-04-27 06:36:00,30.3,18.0,29.60,West,271,2.0,8.0,60,0.00,,,0.00,16,weatherlink.com 1.10,2013-04-27 14:36:00,
2013-04-27 06:51:00,31.1,19.0,29.60,WNW,298,5.0,10.0,61,0.00,,,0.00,33,weatherlink.com 1.10,2013-04-27 14:51:00,
2013-04-27 07:06:00,31.3,18.0,29.61,WNW,301,6.0,12.0,58,0.00,,,0.00,58,weatherlink.com 1.10,2013-04-27 15:06:00,
2013-04-27 07:21:00,31.4,17.0,29.61,West,277,7.0,13.0,56,0.00,,,0.00,95,weatherlink.com 1.10,2013-04-27 15:21:00,
2013-04-27 07:36:00,31.7,17.0,29.62,West,279,2.0,7.0,56,0.00,,,0.00,109,weatherlink.com 1.10,2013-04-27 15:36:00,
2013-04-27 07:51:00,31.9,18.0,29.63,WNW,300,5.0,6.0,56,0.00,,,0.00,137,weatherlink.com 1.10,2013-04-27 15:51:00,
2013-04-27 08:06:00,32.2,18.0,29.63,West,269,9.0,11.0,55,0.00,,,0.00,144,weatherlink.com 1.10,2013-04-27 16:06:00,
2013-04-27 08:21:00,32.1,17.0,29.64,NW,320,8.0,12.0,54,0.00,,,0.00,149,weatherlink.com 1.10,2013-04-27 16:21:00,
2013-04-27 08:36:00,32.2,17.0,29.64,West,281,6.0,14.0,54,0.00,,,0.00,225,weatherlink.com 1.10,2013-04-27 16:36:00,
2013-04-27 08:51:00,33.3,17.0,29.65,West,273,7.0,15.0,52,0.00,,,0.00,320,weatherlink.com 1.10,2013-04-27 16:51:00,
2013-04-27 09:06:00,32.4,17.0,29.66,SW,226,7.0,18.0,53,0.00,,,0.00,176,weatherlink.com 1.10,2013-04-27 17:06:00,
2013-04-27 09:21:00,32.4,17.0,29.66,West,269,9.0,15.0,53,0.00,,,0.00,323,weatherlink.com 1.10,2013-04-27 17:21:00,
2013-04-27 09:36:00,34.2,16.0,29.66,West,274,12.0,18.0,47,0.00,,,0.00,394,weatherlink.com 1.10,2013-04-27 17:36:00,
2013-04-27 09:51:00,34.9,16.0,29.67,WNW,296,14.0,19.0,47,0.00,,,0.00,380,weatherlink.com 1.10,2013-04-27 17:51:00,
2013-04-27 10:06:00,34.6,17.0,29.67,NW,316,9.0,19.0,48,0.00,,,0.00,459,weatherlink.com 1.10,2013-04-27 18:06:00,
2013-04-27 10:21:00,34.9,16.0,29.68,West,272,11.0,20.0,47,0.00,,,0.00,508,weatherlink.com 1.10,2013-04-27 18:21:00,
2013-04-27 10:37:00,35.1,17.0,29.68,WNW,286,12.0,21.0,47,0.00,,,0.00,536,weatherlink.com 1.10,2013-04-27 18:37:00,
2013-04-27 10:52:00,36.0,16.0,29.69,West,261,25.0,28.0,45,0.00,,,0.00,559,weatherlink.com 1.10,2013-04-27 18:52:00,
2013-04-27 11:07:00,36.2,16.0,29.70,WNW,285,20.0,30.0,44,0.00,,,0.00,584,weatherlink.com 1.10,2013-04-27 19:07:00,
2013-04-27 11:22:00,36.7,16.0,29.70,West,269,13.0,21.0,43,0.00,,,0.00,601,weatherlink.com 1.10,2013-04-27 19:22:00,
2013-04-27 11:37:00,36.9,16.0,29.71,West,279,13.0,26.0,43,0.00,,,0.00,559,weatherlink.com 1.10,2013-04-27 19:37:00,
2013-04-27 11:52:00,37.9,15.0,29.71,West,269,4.0,21.0,40,0.00,,,0.00,341,weatherlink.com 1.10,2013-04-27 19:52:00,
2013-04-27 12:07:00,39.2,14.0,29.71,North,355,15.0,25.0,35,0.00,,,0.00,53,weatherlink.com 1.10,2013-04-27 20:07:00,
2013-04-27 12:22:00,38.0,16.0,29.72,West,269,8.0,26.0,40,0.00,,,0.00,49,weatherlink.com 1.10,2013-04-27 20:22:00,
2013-04-27 12:37:00,38.6,15.0,29.73,WSW,245,8.0,21.0,39,0.00,,,0.00,47,weatherlink.com 1.10,2013-04-27 20:37:00,
2013-04-27 12:52:00,39.1,15.0,29.73,NW,304,14.0,23.0,38,0.00,,,0.00,46,weatherlink.com 1.10,2013-04-27 20:52:00,
2013-04-27 13:07:00,39.4,14.0,29.73,NW,325,10.0,21.0,36,0.00,,,0.00,44,weatherlink.com 1.10,2013-04-27 21:07:00,
2013-04-27 13:22:00,39.1,15.0,29.74,West,261,14.0,23.0,37,0.00,,,0.00,42,weatherlink.com 1.10,2013-04-27 21:22:00,
2013-04-27 13:37:00,39.4,15.0,29.74,NW,316,15.0,21.0,37,0.00,,,0.00,42,weatherlink.com 1.10,2013-04-27 21:37:00,
2013-04-27 13:52:00,41.0,14.0,29.74,NW,319,15.0,19.0,34,0.00,,,0.00,42,weatherlink.com 1.10,2013-04-27 21:52:00,
2013-04-27 14:07:00,40.8,14.0,29.74,NW,318,16.0,24.0,33,0.00,,,0.00,42,weatherlink.com 1.10,2013-04-27 22:07:00,
2013-04-27 14:22:00,40.5,14.0,29.74,NW,308,16.0,25.0,34,0.00,,,0.00,42,weatherlink.com 1.10,2013-04-27 22:22:00,
2013-04-27 14:37:00,41.0,14.0,29.75,NW,304,21.0,26.0,33,0.00,,,0.00,42,weatherlink.com 1.10,2013-04-27 22:37:00,
2013-04-27 14:52:00,41.3,15.0,29.75,NW,304,21.0,22.0,34,0.00,,,0.00,42,weatherlink.com 1.10,2013-04-27 22:52:00,
2013-04-27 15:07:00,41.5,14.0,29.76,NW,308,18.0,23.0,32,0.00,,,0.00,42,weatherlink.com 1.10,2013-04-27 23:07:00,
2013-04-27 15:22:00,42.0,15.0,29.76,WNW,294,14.0,23.0,33,0.00,,,0.00,42,weatherlink.com 1.10,2013-04-27 23:22:00,
2013-04-27 15:37:00,42.2,14.0,29.76,WNW,293,11.0,25.0,32,0.00,,,0.00,42,weatherlink.com 1.10,2013-04-27 23:37:00,
2013-04-27 15:52:00,42.5,15.0,29.76,NNW,342,11.0,20.0,33,0.00,,,0.00,104,weatherlink.com 1.10,2013-04-27 23:52:00,
2013-04-27 16:07:00,42.9,15.0,29.77,NW,310,7.0,21.0,33,0.00,,,0.00,594,weatherlink.com 1.10,2013-04-28 00:07:00,
2013-04-27 16:22:00,42.2,14.0,29.77,North,5,15.0,23.0,32,0.00,,,0.00,490,weatherlink.com 1.10,2013-04-28 00:22:00,
2013-04-27 16:37:00,43.2,16.0,29.78,NW,320,12.0,16.0,33,0.00,,,0.00,46,weatherlink.com 1.10,2013-04-28 00:37:00,
2013-04-27 16:52:00,42.5,14.0,29.78,NNW,327,14.0,21.0,31,0.00,,,0.00,531,weatherlink.com 1.10,2013-04-28 00:52:00,
2013-04-27 17:07:00,43.2,14.0,29.78,NW,306,6.0,19.0,31,0.00,,,0.00,508,weatherlink.com 1.10,2013-04-28 01:07:00,
2013-04-27 17:22:00,43.0,13.0,29.79,NNW,330,16.0,22.0,30,0.00,,,0.00,482,weatherlink.com 1.10,2013-04-28 01:22:00,
2013-04-27 17:37:00,43.1,15.0,29.79,West,262,9.0,18.0,32,0.00,,,0.00,394,weatherlink.com 1.10,2013-04-28 01:37:00,
2013-04-27 17:52:00,43.5,15.0,29.79,NW,321,10.0,21.0,31,0.00,,,0.00,424,weatherlink.com 1.10,2013-04-28 01:52:00,
2013-04-27 18:07:00,43.2,14.0,29.80,WNW,290,10.0,21.0,30,0.00,,,0.00,401,weatherlink.com 1.10,2013-04-28 02:07:00,
2013-04-27 18:22:00,42.7,16.0,29.80,West,274,18.0,24.0,34,0.00,,,0.00,60,weatherlink.com 1.10,2013-04-28 02:22:00,
2013-04-27 18:37:00,41.5,17.0,29.81,WNW,295,11.0,23.0,37,0.00,,,0.00,338,weatherlink.com 1.10,2013-04-28 02:37:00,
2013-04-27 18:52:00,40.9,18.0,29.81,NW,304,16.0,23.0,39,0.00,,,0.00,308,weatherlink.com 1.10,2013-04-28 02:52:00,
2013-04-27 19:07:00,41.0,17.0,29.82,West,260,14.0,20.0,38,0.00,,,0.00,278,weatherlink.com 1.10,2013-04-28 03:07:00,
2013-04-27 19:23:00,41.1,15.0,29.82,West,274,13.0,22.0,35,0.00,,,0.00,246,weatherlink.com 1.10,2013-04-28 03:23:00,
2013-04-27 19:38:00,41.0,16.0,29.83,NW,323,9.0,25.0,37,0.00,,,0.00,213,weatherlink.com 1.10,2013-04-28 03:38:00,
2013-04-27 19:53:00,40.0,20.0,29.83,WSW,257,18.0,25.0,45,0.00,,,0.00,172,weatherlink.com 1.10,2013-04-28 03:53:00,
2013-04-27 20:08:00,39.5,18.0,29.84,NNW,344,7.0,24.0,42,0.00,,,0.00,134,weatherlink.com 1.10,2013-04-28 04:08:00,
2013-04-27 20:23:00,39.3,17.0,29.84,West,268,14.0,24.0,40,0.00,,,0.00,100,weatherlink.com 1.10,2013-04-28 04:23:00,
2013-04-27 20:38:00,39.0,15.0,29.84,West,267,16.0,27.0,37,0.00,,,0.00,70,weatherlink.com 1.10,2013-04-28 04:38:00,
2013-04-27 20:53:00,38.5,14.0,29.85,WNW,291,28.0,28.0,37,0.00,,,0.00,47,weatherlink.com 1.10,2013-04-28 04:53:00,
2013-04-27 21:08:00,38.0,14.0,29.84,West,264,15.0,28.0,38,0.00,,,0.00,28,weatherlink.com 1.10,2013-04-28 05:08:00,
2013-04-27 21:23:00,37.6,15.0,29.84,WNW,290,14.0,21.0,39,0.00,,,0.00,18,weatherlink.com 1.10,2013-04-28 05:23:00,
2013-04-27 21:38:00,37.0,14.0,29.85,West,271,11.0,21.0,39,0.00,,,0.00,9,weatherlink.com 1.10,2013-04-28 05:38:00,
2013-04-27 21:53:00,36.4,14.0,29.85,West,267,16.0,21.0,40,0.00,,,0.00,5,weatherlink.com 1.10,2013-04-28 05:53:00,
2013-04-27 22:08:00,36.0,14.0,29.86,WNW,295,14.0,22.0,40,0.00,,,0.00,0,weatherlink.com 1.10,2013-04-28 06:08:00,
2013-04-27 22:23:00,35.6,13.0,29.86,West,281,11.0,21.0,40,0.00,,,0.00,0,weatherlink.com 1.10,2013-04-28 06:23:00,
2013-04-27 22:38:00,35.1,13.0,29.88,West,265,8.0,23.0,41,0.00,,,0.00,0,weatherlink.com 1.10,2013-04-28 06:38:00,
2013-04-27 22:53:00,34.6,14.0,29.88,WNW,286,12.0,24.0,42,0.00,,,0.00,0,weatherlink.com 1.10,2013-04-28 06:53:00,
2013-04-27 23:08:00,34.2,13.0,29.88,West,277,14.0,24.0,42,0.00,,,0.00,0,weatherlink.com 1.10,2013-04-28 07:08:00,
2013-04-27 23:23:00,33.9,13.0,29.88,West,277,12.0,21.0,43,0.00,,,0.00,0,weatherlink.com 1.10,2013-04-28 07:23:00,
2013-04-27 23:38:00,33.7,14.0,29.89,WNW,286,7.0,21.0,44,0.00,,,0.00,0,weatherlink.com 1.10,2013-04-28 07:38:00,
2013-04-27 23:53:00,33.3,14.0,29.89,West,263,12.0,19.0,45,0.00,,,0.00,0,weatherlink.com 1.10,2013-04-28 07:53:00,